sensor_id;sensor_type;location;lat;lon;timestamp;P1;durP1;ratioP1;P2;durP2;ratioP2
59300;SDS011;45073;52.740;6.784;2023-04-15T00:01:23;11.13;;;5.05;;
59300;SDS011;45073;52.740;6.784;2023-04-15T00:03:52;13.05;;;5.15;;
59300;SDS011;45073;52.740;6.784;2023-04-15T00:06:22;10.30;;;4.78;;
59300;SDS011;45073;52.740;6.784;2023-04-15T00:08:48;11.55;;;4.55;;
59300;SDS011;45073;52.740;6.784;2023-04-15T00:11:15;10.05;;;4.70;;
59300;SDS011;45073;52.740;6.784;2023-04-15T00:13:42;8.73;;;4.80;;
59300;SDS011;45073;52.740;6.784;2023-04-15T00:16:08;10.93;;;5.20;;
59300;SDS011;45073;52.740;6.784;2023-04-15T00:18:34;9.68;;;4.05;;
59300;SDS011;45073;52.740;6.784;2023-04-15T00:21:01;8.65;;;4.45;;
59300;SDS011;45073;52.740;6.784;2023-04-15T00:23:27;9.25;;;4.22;;
59300;SDS011;45073;52.740;6.784;2023-04-15T00:25:53;9.48;;;4.78;;
59300;SDS011;45073;52.740;6.784;2023-04-15T00:28:19;10.75;;;4.75;;
59300;SDS011;45073;52.740;6.784;2023-04-15T00:30:45;10.38;;;4.82;;
59300;SDS011;45073;52.740;6.784;2023-04-15T00:33:11;11.50;;;4.88;;
59300;SDS011;45073;52.740;6.784;2023-04-15T00:35:37;9.85;;;4.88;;
59300;SDS011;45073;52.740;6.784;2023-04-15T00:38:04;12.00;;;4.95;;
59300;SDS011;45073;52.740;6.784;2023-04-15T00:40:31;11.13;;;4.75;;
59300;SDS011;45073;52.740;6.784;2023-04-15T00:42:57;9.45;;;4.90;;
59300;SDS011;45073;52.740;6.784;2023-04-15T00:45:23;11.40;;;4.65;;
59300;SDS011;45073;52.740;6.784;2023-04-15T00:47:48;9.70;;;4.80;;
59300;SDS011;45073;52.740;6.784;2023-04-15T00:50:15;10.23;;;4.75;;
59300;SDS011;45073;52.740;6.784;2023-04-15T00:52:40;10.57;;;4.68;;
59300;SDS011;45073;52.740;6.784;2023-04-15T00:55:06;11.57;;;5.22;;
59300;SDS011;45073;52.740;6.784;2023-04-15T00:57:32;10.02;;;5.00;;
59300;SDS011;45073;52.740;6.784;2023-04-15T00:59:59;11.80;;;4.72;;
59300;SDS011;45073;52.740;6.784;2023-04-15T01:02:25;12.15;;;5.05;;
59300;SDS011;45073;52.740;6.784;2023-04-15T01:04:51;10.32;;;5.22;;
59300;SDS011;45073;52.740;6.784;2023-04-15T01:07:17;10.30;;;4.45;;
59300;SDS011;45073;52.740;6.784;2023-04-15T01:09:42;10.70;;;4.85;;
59300;SDS011;45073;52.740;6.784;2023-04-15T01:12:10;9.98;;;4.72;;
59300;SDS011;45073;52.740;6.784;2023-04-15T01:14:38;11.10;;;4.72;;
59300;SDS011;45073;52.740;6.784;2023-04-15T01:17:03;8.30;;;4.22;;
59300;SDS011;45073;52.740;6.784;2023-04-15T01:19:29;9.40;;;4.03;;
59300;SDS011;45073;52.740;6.784;2023-04-15T01:21:55;9.75;;;4.47;;
59300;SDS011;45073;52.740;6.784;2023-04-15T01:24:21;8.60;;;4.18;;
59300;SDS011;45073;52.740;6.784;2023-04-15T01:26:48;11.82;;;4.63;;
59300;SDS011;45073;52.740;6.784;2023-04-15T01:29:14;10.48;;;4.13;;
59300;SDS011;45073;52.740;6.784;2023-04-15T01:31:40;10.93;;;5.30;;
59300;SDS011;45073;52.740;6.784;2023-04-15T01:34:13;9.00;;;3.92;;
59300;SDS011;45073;52.740;6.784;2023-04-15T01:36:39;11.18;;;3.88;;
59300;SDS011;45073;52.740;6.784;2023-04-15T01:39:05;9.20;;;4.30;;
59300;SDS011;45073;52.740;6.784;2023-04-15T01:41:31;9.15;;;4.10;;
59300;SDS011;45073;52.740;6.784;2023-04-15T01:43:56;8.00;;;3.67;;
59300;SDS011;45073;52.740;6.784;2023-04-15T01:46:22;8.82;;;4.60;;
59300;SDS011;45073;52.740;6.784;2023-04-15T01:48:48;8.88;;;4.00;;
59300;SDS011;45073;52.740;6.784;2023-04-15T01:51:13;11.13;;;4.75;;
59300;SDS011;45073;52.740;6.784;2023-04-15T01:53:39;12.65;;;5.35;;
59300;SDS011;45073;52.740;6.784;2023-04-15T01:56:05;9.52;;;5.45;;
59300;SDS011;45073;52.740;6.784;2023-04-15T01:58:31;9.90;;;5.55;;
59300;SDS011;45073;52.740;6.784;2023-04-15T02:00:57;14.07;;;5.32;;
59300;SDS011;45073;52.740;6.784;2023-04-15T02:03:23;12.50;;;5.75;;
59300;SDS011;45073;52.740;6.784;2023-04-15T02:05:49;11.20;;;5.70;;
59300;SDS011;45073;52.740;6.784;2023-04-15T02:08:15;12.07;;;5.72;;
59300;SDS011;45073;52.740;6.784;2023-04-15T02:10:41;10.77;;;6.15;;
59300;SDS011;45073;52.740;6.784;2023-04-15T02:13:06;12.65;;;5.75;;
59300;SDS011;45073;52.740;6.784;2023-04-15T02:15:32;12.07;;;6.20;;
59300;SDS011;45073;52.740;6.784;2023-04-15T02:17:58;10.18;;;5.68;;
59300;SDS011;45073;52.740;6.784;2023-04-15T02:20:24;11.25;;;5.20;;
59300;SDS011;45073;52.740;6.784;2023-04-15T02:22:50;10.68;;;5.72;;
59300;SDS011;45073;52.740;6.784;2023-04-15T02:25:16;9.95;;;4.97;;
59300;SDS011;45073;52.740;6.784;2023-04-15T02:27:42;12.07;;;5.50;;
59300;SDS011;45073;52.740;6.784;2023-04-15T02:30:08;11.00;;;5.30;;
59300;SDS011;45073;52.740;6.784;2023-04-15T02:32:34;10.10;;;5.25;;
59300;SDS011;45073;52.740;6.784;2023-04-15T02:35:05;12.35;;;5.35;;
59300;SDS011;45073;52.740;6.784;2023-04-15T02:37:32;10.75;;;5.32;;
59300;SDS011;45073;52.740;6.784;2023-04-15T02:40:04;12.00;;;5.28;;
59300;SDS011;45073;52.740;6.784;2023-04-15T02:42:31;10.40;;;5.50;;
59300;SDS011;45073;52.740;6.784;2023-04-15T02:44:57;13.45;;;6.18;;
59300;SDS011;45073;52.740;6.784;2023-04-15T02:47:23;12.40;;;5.47;;
59300;SDS011;45073;52.740;6.784;2023-04-15T02:49:49;12.95;;;5.40;;
59300;SDS011;45073;52.740;6.784;2023-04-15T02:52:14;11.82;;;5.97;;
59300;SDS011;45073;52.740;6.784;2023-04-15T02:54:40;12.80;;;6.50;;
59300;SDS011;45073;52.740;6.784;2023-04-15T02:57:06;12.55;;;5.57;;
59300;SDS011;45073;52.740;6.784;2023-04-15T02:59:31;12.60;;;5.70;;
59300;SDS011;45073;52.740;6.784;2023-04-15T03:01:57;11.15;;;6.03;;
59300;SDS011;45073;52.740;6.784;2023-04-15T03:04:25;12.57;;;5.57;;
59300;SDS011;45073;52.740;6.784;2023-04-15T03:06:54;12.82;;;6.40;;
59300;SDS011;45073;52.740;6.784;2023-04-15T03:09:20;11.48;;;5.90;;
59300;SDS011;45073;52.740;6.784;2023-04-15T03:11:46;11.80;;;5.97;;
59300;SDS011;45073;52.740;6.784;2023-04-15T03:14:11;12.60;;;6.35;;
59300;SDS011;45073;52.740;6.784;2023-04-15T03:16:37;12.52;;;6.95;;
59300;SDS011;45073;52.740;6.784;2023-04-15T03:19:02;11.57;;;5.45;;
59300;SDS011;45073;52.740;6.784;2023-04-15T03:21:28;12.07;;;6.10;;
59300;SDS011;45073;52.740;6.784;2023-04-15T03:23:53;13.82;;;6.47;;
59300;SDS011;45073;52.740;6.784;2023-04-15T03:26:27;15.05;;;6.68;;
59300;SDS011;45073;52.740;6.784;2023-04-15T03:28:54;11.85;;;6.03;;
59300;SDS011;45073;52.740;6.784;2023-04-15T03:31:20;13.95;;;6.35;;
59300;SDS011;45073;52.740;6.784;2023-04-15T03:33:46;10.93;;;5.85;;
59300;SDS011;45073;52.740;6.784;2023-04-15T03:36:11;13.20;;;6.15;;
59300;SDS011;45073;52.740;6.784;2023-04-15T03:38:37;14.60;;;6.38;;
59300;SDS011;45073;52.740;6.784;2023-04-15T03:41:03;12.75;;;6.57;;
59300;SDS011;45073;52.740;6.784;2023-04-15T03:43:29;11.10;;;6.25;;
59300;SDS011;45073;52.740;6.784;2023-04-15T03:45:54;14.88;;;6.70;;
59300;SDS011;45073;52.740;6.784;2023-04-15T03:48:20;13.73;;;6.45;;
59300;SDS011;45073;52.740;6.784;2023-04-15T03:50:46;12.90;;;7.07;;
59300;SDS011;45073;52.740;6.784;2023-04-15T03:53:12;13.20;;;6.53;;
59300;SDS011;45073;52.740;6.784;2023-04-15T03:55:37;12.35;;;6.30;;
59300;SDS011;45073;52.740;6.784;2023-04-15T03:58:03;14.88;;;7.50;;
59300;SDS011;45073;52.740;6.784;2023-04-15T04:00:29;12.18;;;6.65;;
59300;SDS011;45073;52.740;6.784;2023-04-15T04:02:55;12.35;;;6.32;;
59300;SDS011;45073;52.740;6.784;2023-04-15T04:05:21;16.02;;;7.30;;
59300;SDS011;45073;52.740;6.784;2023-04-15T04:07:47;13.80;;;6.47;;
59300;SDS011;45073;52.740;6.784;2023-04-15T04:10:12;14.18;;;5.95;;
59300;SDS011;45073;52.740;6.784;2023-04-15T04:12:38;13.02;;;6.30;;
59300;SDS011;45073;52.740;6.784;2023-04-15T04:15:04;12.15;;;6.43;;
59300;SDS011;45073;52.740;6.784;2023-04-15T04:17:30;13.57;;;6.53;;
59300;SDS011;45073;52.740;6.784;2023-04-15T04:19:56;13.40;;;7.28;;
59300;SDS011;45073;52.740;6.784;2023-04-15T04:22:22;12.45;;;6.53;;
59300;SDS011;45073;52.740;6.784;2023-04-15T04:24:48;13.73;;;6.75;;
59300;SDS011;45073;52.740;6.784;2023-04-15T04:27:14;13.90;;;6.88;;
59300;SDS011;45073;52.740;6.784;2023-04-15T04:29:40;14.85;;;6.82;;
59300;SDS011;45073;52.740;6.784;2023-04-15T04:32:06;13.38;;;6.32;;
59300;SDS011;45073;52.740;6.784;2023-04-15T04:34:31;14.15;;;7.05;;
59300;SDS011;45073;52.740;6.784;2023-04-15T04:36:57;15.60;;;6.97;;
59300;SDS011;45073;52.740;6.784;2023-04-15T04:39:23;13.07;;;7.30;;
59300;SDS011;45073;52.740;6.784;2023-04-15T04:41:48;13.85;;;7.20;;
59300;SDS011;45073;52.740;6.784;2023-04-15T04:44:16;14.07;;;7.15;;
59300;SDS011;45073;52.740;6.784;2023-04-15T04:46:41;12.88;;;5.95;;
59300;SDS011;45073;52.740;6.784;2023-04-15T04:49:07;11.77;;;6.13;;
59300;SDS011;45073;52.740;6.784;2023-04-15T04:51:33;13.55;;;6.63;;
59300;SDS011;45073;52.740;6.784;2023-04-15T04:53:58;12.23;;;6.00;;
59300;SDS011;45073;52.740;6.784;2023-04-15T04:56:24;12.20;;;6.43;;
59300;SDS011;45073;52.740;6.784;2023-04-15T04:58:49;13.10;;;6.65;;
59300;SDS011;45073;52.740;6.784;2023-04-15T05:01:15;11.30;;;5.47;;
59300;SDS011;45073;52.740;6.784;2023-04-15T05:03:41;10.90;;;5.68;;
59300;SDS011;45073;52.740;6.784;2023-04-15T05:06:07;14.00;;;6.57;;
59300;SDS011;45073;52.740;6.784;2023-04-15T05:08:33;13.43;;;5.93;;
59300;SDS011;45073;52.740;6.784;2023-04-15T05:10:58;12.60;;;6.47;;
59300;SDS011;45073;52.740;6.784;2023-04-15T05:13:24;10.43;;;5.72;;
59300;SDS011;45073;52.740;6.784;2023-04-15T05:15:50;11.48;;;5.65;;
59300;SDS011;45073;52.740;6.784;2023-04-15T05:18:15;11.70;;;5.10;;
59300;SDS011;45073;52.740;6.784;2023-04-15T05:20:41;11.77;;;6.07;;
59300;SDS011;45073;52.740;6.784;2023-04-15T05:23:07;15.02;;;6.45;;
59300;SDS011;45073;52.740;6.784;2023-04-15T05:25:33;14.60;;;7.10;;
59300;SDS011;45073;52.740;6.784;2023-04-15T05:27:58;14.85;;;6.80;;
59300;SDS011;45073;52.740;6.784;2023-04-15T05:30:24;13.57;;;7.07;;
59300;SDS011;45073;52.740;6.784;2023-04-15T05:32:50;15.30;;;7.22;;
59300;SDS011;45073;52.740;6.784;2023-04-15T05:35:16;14.27;;;7.38;;
59300;SDS011;45073;52.740;6.784;2023-04-15T05:37:42;15.82;;;7.35;;
59300;SDS011;45073;52.740;6.784;2023-04-15T05:40:07;15.23;;;7.15;;
59300;SDS011;45073;52.740;6.784;2023-04-15T05:42:34;16.33;;;6.93;;
59300;SDS011;45073;52.740;6.784;2023-04-15T05:45:00;13.60;;;7.22;;
59300;SDS011;45073;52.740;6.784;2023-04-15T05:47:29;16.55;;;6.65;;
59300;SDS011;45073;52.740;6.784;2023-04-15T05:49:55;13.85;;;7.05;;
59300;SDS011;45073;52.740;6.784;2023-04-15T05:52:20;15.93;;;8.13;;
59300;SDS011;45073;52.740;6.784;2023-04-15T05:54:46;13.25;;;6.50;;
59300;SDS011;45073;52.740;6.784;2023-04-15T05:57:12;13.63;;;6.72;;
59300;SDS011;45073;52.740;6.784;2023-04-15T05:59:37;14.52;;;6.97;;
59300;SDS011;45073;52.740;6.784;2023-04-15T06:02:03;15.40;;;8.07;;
59300;SDS011;45073;52.740;6.784;2023-04-15T06:04:28;15.43;;;7.47;;
59300;SDS011;45073;52.740;6.784;2023-04-15T06:06:54;14.98;;;7.93;;
59300;SDS011;45073;52.740;6.784;2023-04-15T06:09:20;15.63;;;7.10;;
59300;SDS011;45073;52.740;6.784;2023-04-15T06:11:46;14.88;;;8.00;;
59300;SDS011;45073;52.740;6.784;2023-04-15T06:14:12;15.23;;;7.22;;
59300;SDS011;45073;52.740;6.784;2023-04-15T06:16:38;13.65;;;7.28;;
59300;SDS011;45073;52.740;6.784;2023-04-15T06:19:03;13.00;;;6.95;;
59300;SDS011;45073;52.740;6.784;2023-04-15T06:21:29;15.57;;;7.60;;
59300;SDS011;45073;52.740;6.784;2023-04-15T06:23:55;18.33;;;10.38;;
59300;SDS011;45073;52.740;6.784;2023-04-15T06:26:22;16.25;;;8.48;;
59300;SDS011;45073;52.740;6.784;2023-04-15T06:28:48;15.48;;;8.20;;
59300;SDS011;45073;52.740;6.784;2023-04-15T06:31:13;13.30;;;7.57;;
59300;SDS011;45073;52.740;6.784;2023-04-15T06:33:40;16.10;;;8.63;;
59300;SDS011;45073;52.740;6.784;2023-04-15T06:36:05;17.30;;;9.27;;
59300;SDS011;45073;52.740;6.784;2023-04-15T06:38:31;13.43;;;7.82;;
59300;SDS011;45073;52.740;6.784;2023-04-15T06:40:57;18.33;;;8.23;;
59300;SDS011;45073;52.740;6.784;2023-04-15T06:43:22;14.13;;;7.70;;
59300;SDS011;45073;52.740;6.784;2023-04-15T06:45:48;16.42;;;8.13;;
59300;SDS011;45073;52.740;6.784;2023-04-15T06:48:13;13.98;;;7.68;;
59300;SDS011;45073;52.740;6.784;2023-04-15T06:50:39;16.13;;;8.23;;
59300;SDS011;45073;52.740;6.784;2023-04-15T06:53:05;17.30;;;8.57;;
59300;SDS011;45073;52.740;6.784;2023-04-15T06:55:31;17.85;;;8.32;;
59300;SDS011;45073;52.740;6.784;2023-04-15T06:57:57;13.77;;;7.97;;
59300;SDS011;45073;52.740;6.784;2023-04-15T07:00:23;14.35;;;7.47;;
59300;SDS011;45073;52.740;6.784;2023-04-15T07:02:49;14.43;;;7.28;;
59300;SDS011;45073;52.740;6.784;2023-04-15T07:05:15;13.15;;;6.40;;
59300;SDS011;45073;52.740;6.784;2023-04-15T07:07:41;14.23;;;7.15;;
59300;SDS011;45073;52.740;6.784;2023-04-15T07:10:07;14.68;;;7.65;;
59300;SDS011;45073;52.740;6.784;2023-04-15T07:12:33;14.68;;;7.45;;
59300;SDS011;45073;52.740;6.784;2023-04-15T07:14:59;14.38;;;7.53;;
59300;SDS011;45073;52.740;6.784;2023-04-15T07:17:25;14.00;;;6.78;;
59300;SDS011;45073;52.740;6.784;2023-04-15T07:19:51;14.88;;;7.55;;
59300;SDS011;45073;52.740;6.784;2023-04-15T07:22:16;12.85;;;5.90;;
59300;SDS011;45073;52.740;6.784;2023-04-15T07:24:42;13.57;;;6.78;;
59300;SDS011;45073;52.740;6.784;2023-04-15T07:27:07;12.45;;;6.38;;
59300;SDS011;45073;52.740;6.784;2023-04-15T07:29:33;14.45;;;7.13;;
59300;SDS011;45073;52.740;6.784;2023-04-15T07:31:59;17.23;;;7.75;;
59300;SDS011;45073;52.740;6.784;2023-04-15T07:34:24;12.80;;;6.78;;
59300;SDS011;45073;52.740;6.784;2023-04-15T07:36:50;13.43;;;6.43;;
59300;SDS011;45073;52.740;6.784;2023-04-15T07:39:17;12.52;;;6.50;;
59300;SDS011;45073;52.740;6.784;2023-04-15T07:41:43;13.27;;;6.30;;
59300;SDS011;45073;52.740;6.784;2023-04-15T07:44:08;13.25;;;6.78;;
59300;SDS011;45073;52.740;6.784;2023-04-15T07:46:34;12.70;;;6.38;;
59300;SDS011;45073;52.740;6.784;2023-04-15T07:49:01;15.77;;;6.80;;
59300;SDS011;45073;52.740;6.784;2023-04-15T07:51:26;11.48;;;6.20;;
59300;SDS011;45073;52.740;6.784;2023-04-15T07:53:53;13.75;;;6.43;;
59300;SDS011;45073;52.740;6.784;2023-04-15T07:56:19;13.88;;;6.47;;
59300;SDS011;45073;52.740;6.784;2023-04-15T07:58:44;11.90;;;5.97;;
59300;SDS011;45073;52.740;6.784;2023-04-15T08:01:10;15.27;;;6.38;;
59300;SDS011;45073;52.740;6.784;2023-04-15T08:03:36;14.68;;;6.20;;
59300;SDS011;45073;52.740;6.784;2023-04-15T08:06:02;14.65;;;6.15;;
59300;SDS011;45073;52.740;6.784;2023-04-15T08:08:27;12.52;;;6.15;;
59300;SDS011;45073;52.740;6.784;2023-04-15T08:10:53;12.77;;;6.45;;
59300;SDS011;45073;52.740;6.784;2023-04-15T08:13:19;11.10;;;5.90;;
59300;SDS011;45073;52.740;6.784;2023-04-15T08:15:45;11.50;;;5.88;;
59300;SDS011;45073;52.740;6.784;2023-04-15T08:18:11;13.23;;;6.18;;
59300;SDS011;45073;52.740;6.784;2023-04-15T08:20:36;11.90;;;6.07;;
59300;SDS011;45073;52.740;6.784;2023-04-15T08:23:02;11.77;;;6.28;;
59300;SDS011;45073;52.740;6.784;2023-04-15T08:25:28;14.18;;;6.10;;
59300;SDS011;45073;52.740;6.784;2023-04-15T08:27:54;13.77;;;5.80;;
59300;SDS011;45073;52.740;6.784;2023-04-15T08:30:22;12.23;;;5.57;;
59300;SDS011;45073;52.740;6.784;2023-04-15T08:32:48;10.95;;;5.63;;
59300;SDS011;45073;52.740;6.784;2023-04-15T08:35:14;11.57;;;5.28;;
59300;SDS011;45073;52.740;6.784;2023-04-15T08:37:40;13.00;;;6.97;;
59300;SDS011;45073;52.740;6.784;2023-04-15T08:40:05;12.35;;;5.90;;
59300;SDS011;45073;52.740;6.784;2023-04-15T08:42:35;11.32;;;5.40;;
59300;SDS011;45073;52.740;6.784;2023-04-15T08:45:05;11.40;;;5.03;;
59300;SDS011;45073;52.740;6.784;2023-04-15T08:47:34;11.00;;;4.85;;
59300;SDS011;45073;52.740;6.784;2023-04-15T08:50:03;10.68;;;5.57;;
59300;SDS011;45073;52.740;6.784;2023-04-15T08:52:33;9.75;;;4.97;;
59300;SDS011;45073;52.740;6.784;2023-04-15T08:54:59;10.23;;;4.10;;
59300;SDS011;45073;52.740;6.784;2023-04-15T08:57:27;11.70;;;4.40;;
59300;SDS011;45073;52.740;6.784;2023-04-15T08:59:56;9.50;;;4.40;;
59300;SDS011;45073;52.740;6.784;2023-04-15T09:02:22;9.00;;;3.78;;
59300;SDS011;45073;52.740;6.784;2023-04-15T09:04:50;9.88;;;3.80;;
59300;SDS011;45073;52.740;6.784;2023-04-15T09:07:15;8.13;;;3.50;;
59300;SDS011;45073;52.740;6.784;2023-04-15T09:09:41;9.57;;;3.60;;
59300;SDS011;45073;52.740;6.784;2023-04-15T09:12:07;9.45;;;3.28;;
59300;SDS011;45073;52.740;6.784;2023-04-15T09:14:37;7.78;;;3.40;;
59300;SDS011;45073;52.740;6.784;2023-04-15T09:17:04;7.30;;;2.88;;
59300;SDS011;45073;52.740;6.784;2023-04-15T09:19:30;7.60;;;3.00;;
59300;SDS011;45073;52.740;6.784;2023-04-15T09:21:58;10.35;;;3.53;;
59300;SDS011;45073;52.740;6.784;2023-04-15T09:24:24;8.10;;;2.97;;
59300;SDS011;45073;52.740;6.784;2023-04-15T09:26:51;7.70;;;3.03;;
59300;SDS011;45073;52.740;6.784;2023-04-15T09:29:19;9.80;;;2.70;;
59300;SDS011;45073;52.740;6.784;2023-04-15T09:31:48;7.95;;;2.80;;
59300;SDS011;45073;52.740;6.784;2023-04-15T09:34:13;11.23;;;3.08;;
59300;SDS011;45073;52.740;6.784;2023-04-15T09:39:11;8.32;;;2.90;;
59300;SDS011;45073;52.740;6.784;2023-04-15T09:41:37;7.38;;;2.60;;
59300;SDS011;45073;52.740;6.784;2023-04-15T09:44:03;7.53;;;2.70;;
59300;SDS011;45073;52.740;6.784;2023-04-15T09:46:42;8.65;;;2.75;;
59300;SDS011;45073;52.740;6.784;2023-04-15T09:49:09;7.68;;;3.15;;
59300;SDS011;45073;52.740;6.784;2023-04-15T09:51:35;8.88;;;2.63;;
59300;SDS011;45073;52.740;6.784;2023-04-15T09:54:01;8.65;;;2.78;;
59300;SDS011;45073;52.740;6.784;2023-04-15T09:56:35;8.63;;;2.50;;
59300;SDS011;45073;52.740;6.784;2023-04-15T09:59:05;6.22;;;2.22;;
59300;SDS011;45073;52.740;6.784;2023-04-15T10:01:31;7.20;;;2.40;;
59300;SDS011;45073;52.740;6.784;2023-04-15T10:03:57;6.57;;;2.08;;
59300;SDS011;45073;52.740;6.784;2023-04-15T10:06:26;9.55;;;2.70;;
59300;SDS011;45073;52.740;6.784;2023-04-15T10:08:53;4.90;;;1.98;;
59300;SDS011;45073;52.740;6.784;2023-04-15T10:11:19;6.07;;;2.25;;
59300;SDS011;45073;52.740;6.784;2023-04-15T10:13:48;7.45;;;2.20;;
59300;SDS011;45073;52.740;6.784;2023-04-15T10:16:15;6.68;;;2.78;;
59300;SDS011;45073;52.740;6.784;2023-04-15T10:18:44;7.68;;;2.10;;
59300;SDS011;45073;52.740;6.784;2023-04-15T10:21:11;6.40;;;2.15;;
59300;SDS011;45073;52.740;6.784;2023-04-15T10:23:42;8.32;;;2.13;;
59300;SDS011;45073;52.740;6.784;2023-04-15T10:26:11;6.47;;;2.17;;
59300;SDS011;45073;52.740;6.784;2023-04-15T10:28:42;6.93;;;1.80;;
59300;SDS011;45073;52.740;6.784;2023-04-15T10:31:10;7.75;;;2.40;;
59300;SDS011;45073;52.740;6.784;2023-04-15T10:33:39;5.55;;;1.83;;
59300;SDS011;45073;52.740;6.784;2023-04-15T10:36:06;4.63;;;1.98;;
59300;SDS011;45073;52.740;6.784;2023-04-15T10:38:39;7.20;;;2.47;;
59300;SDS011;45073;52.740;6.784;2023-04-15T10:43:38;7.67;;;2.03;;
59300;SDS011;45073;52.740;6.784;2023-04-15T10:46:09;7.00;;;1.85;;
59300;SDS011;45073;52.740;6.784;2023-04-15T10:48:35;6.78;;;2.58;;
59300;SDS011;45073;52.740;6.784;2023-04-15T10:51:00;6.38;;;1.88;;
59300;SDS011;45073;52.740;6.784;2023-04-15T10:53:28;6.43;;;2.08;;
59300;SDS011;45073;52.740;6.784;2023-04-15T10:55:55;7.70;;;2.03;;
59300;SDS011;45073;52.740;6.784;2023-04-15T10:58:24;5.80;;;1.90;;
59300;SDS011;45073;52.740;6.784;2023-04-15T11:00:51;9.15;;;2.15;;
59300;SDS011;45073;52.740;6.784;2023-04-15T11:03:41;7.13;;;2.03;;
59300;SDS011;45073;52.740;6.784;2023-04-15T11:06:05;9.90;;;2.03;;
59300;SDS011;45073;52.740;6.784;2023-04-15T11:11:21;6.10;;;2.08;;
59300;SDS011;45073;52.740;6.784;2023-04-15T11:13:50;5.80;;;1.88;;
59300;SDS011;45073;52.740;6.784;2023-04-15T11:16:18;6.13;;;2.33;;
59300;SDS011;45073;52.740;6.784;2023-04-15T11:18:54;9.05;;;2.67;;
59300;SDS011;45073;52.740;6.784;2023-04-15T11:21:23;7.38;;;2.47;;
59300;SDS011;45073;52.740;6.784;2023-04-15T11:23:50;7.35;;;2.80;;
59300;SDS011;45073;52.740;6.784;2023-04-15T11:26:15;7.68;;;2.65;;
59300;SDS011;45073;52.740;6.784;2023-04-15T11:28:42;6.95;;;2.05;;
59300;SDS011;45073;52.740;6.784;2023-04-15T11:31:13;4.85;;;1.90;;
59300;SDS011;45073;52.740;6.784;2023-04-15T11:34:00;4.97;;;1.52;;
59300;SDS011;45073;52.740;6.784;2023-04-15T11:36:27;5.88;;;1.83;;
59300;SDS011;45073;52.740;6.784;2023-04-15T11:38:54;7.55;;;2.15;;
59300;SDS011;45073;52.740;6.784;2023-04-15T11:41:22;5.63;;;1.73;;
59300;SDS011;45073;52.740;6.784;2023-04-15T11:43:48;7.82;;;1.92;;
59300;SDS011;45073;52.740;6.784;2023-04-15T11:46:14;4.93;;;1.60;;
59300;SDS011;45073;52.740;6.784;2023-04-15T11:48:41;6.80;;;2.00;;
59300;SDS011;45073;52.740;6.784;2023-04-15T11:51:08;7.28;;;2.45;;
59300;SDS011;45073;52.740;6.784;2023-04-15T11:53:46;6.93;;;2.55;;
59300;SDS011;45073;52.740;6.784;2023-04-15T11:56:17;7.55;;;2.10;;
59300;SDS011;45073;52.740;6.784;2023-04-15T11:58:47;4.97;;;1.85;;
59300;SDS011;45073;52.740;6.784;2023-04-15T12:01:17;6.43;;;1.90;;
59300;SDS011;45073;52.740;6.784;2023-04-15T12:03:47;5.90;;;2.05;;
59300;SDS011;45073;52.740;6.784;2023-04-15T12:06:17;6.22;;;1.90;;
59300;SDS011;45073;52.740;6.784;2023-04-15T12:08:47;10.20;;;3.03;;
59300;SDS011;45073;52.740;6.784;2023-04-15T12:11:13;10.02;;;3.05;;
59300;SDS011;45073;52.740;6.784;2023-04-15T12:13:49;6.18;;;2.10;;
59300;SDS011;45073;52.740;6.784;2023-04-15T12:16:15;8.18;;;2.30;;
59300;SDS011;45073;52.740;6.784;2023-04-15T12:18:44;7.30;;;2.05;;
59300;SDS011;45073;52.740;6.784;2023-04-15T12:21:11;5.70;;;1.80;;
59300;SDS011;45073;52.740;6.784;2023-04-15T12:23:37;6.57;;;1.77;;
59300;SDS011;45073;52.740;6.784;2023-04-15T12:26:04;7.40;;;2.08;;
59300;SDS011;45073;52.740;6.784;2023-04-15T12:28:33;9.68;;;2.47;;
59300;SDS011;45073;52.740;6.784;2023-04-15T12:31:05;9.05;;;2.35;;
59300;SDS011;45073;52.740;6.784;2023-04-15T12:33:32;9.57;;;2.53;;
59300;SDS011;45073;52.740;6.784;2023-04-15T12:35:58;6.60;;;1.90;;
59300;SDS011;45073;52.740;6.784;2023-04-15T12:38:24;9.48;;;2.50;;
59300;SDS011;45073;52.740;6.784;2023-04-15T12:40:49;6.97;;;1.85;;
59300;SDS011;45073;52.740;6.784;2023-04-15T12:43:15;8.82;;;1.90;;
59300;SDS011;45073;52.740;6.784;2023-04-15T12:45:41;3.33;;;1.13;;
59300;SDS011;45073;52.740;6.784;2023-04-15T12:48:07;5.25;;;1.73;;
59300;SDS011;45073;52.740;6.784;2023-04-15T12:50:33;5.68;;;1.73;;
59300;SDS011;45073;52.740;6.784;2023-04-15T12:52:59;8.63;;;2.47;;
59300;SDS011;45073;52.740;6.784;2023-04-15T12:55:25;6.28;;;1.90;;
59300;SDS011;45073;52.740;6.784;2023-04-15T12:57:51;8.35;;;1.60;;
59300;SDS011;45073;52.740;6.784;2023-04-15T13:00:16;9.48;;;1.95;;
59300;SDS011;45073;52.740;6.784;2023-04-15T13:02:43;5.90;;;1.70;;
59300;SDS011;45073;52.740;6.784;2023-04-15T13:05:08;5.93;;;1.88;;
59300;SDS011;45073;52.740;6.784;2023-04-15T13:07:34;6.30;;;1.80;;
59300;SDS011;45073;52.740;6.784;2023-04-15T13:10:00;7.72;;;1.70;;
59300;SDS011;45073;52.740;6.784;2023-04-15T13:12:26;5.10;;;1.50;;
59300;SDS011;45073;52.740;6.784;2023-04-15T13:14:51;5.45;;;1.52;;
59300;SDS011;45073;52.740;6.784;2023-04-15T13:17:17;6.00;;;1.55;;
59300;SDS011;45073;52.740;6.784;2023-04-15T13:19:44;7.30;;;1.75;;
59300;SDS011;45073;52.740;6.784;2023-04-15T13:22:10;7.53;;;1.65;;
59300;SDS011;45073;52.740;6.784;2023-04-15T13:24:36;6.43;;;1.40;;
59300;SDS011;45073;52.740;6.784;2023-04-15T13:27:03;7.25;;;1.70;;
59300;SDS011;45073;52.740;6.784;2023-04-15T13:29:29;7.10;;;1.70;;
59300;SDS011;45073;52.740;6.784;2023-04-15T13:31:55;5.70;;;1.77;;
59300;SDS011;45073;52.740;6.784;2023-04-15T13:34:21;6.63;;;1.52;;
59300;SDS011;45073;52.740;6.784;2023-04-15T13:36:46;6.95;;;1.42;;
59300;SDS011;45073;52.740;6.784;2023-04-15T13:39:12;6.85;;;1.50;;
59300;SDS011;45073;52.740;6.784;2023-04-15T13:41:37;9.32;;;2.35;;
59300;SDS011;45073;52.740;6.784;2023-04-15T13:44:03;5.78;;;1.40;;
59300;SDS011;45073;52.740;6.784;2023-04-15T13:46:30;4.65;;;1.50;;
59300;SDS011;45073;52.740;6.784;2023-04-15T13:48:55;4.93;;;1.30;;
59300;SDS011;45073;52.740;6.784;2023-04-15T13:51:21;5.22;;;1.52;;
59300;SDS011;45073;52.740;6.784;2023-04-15T13:53:47;6.57;;;1.65;;
59300;SDS011;45073;52.740;6.784;2023-04-15T13:56:12;6.88;;;1.60;;
59300;SDS011;45073;52.740;6.784;2023-04-15T13:58:39;7.80;;;1.65;;
59300;SDS011;45073;52.740;6.784;2023-04-15T14:01:05;7.70;;;1.77;;
59300;SDS011;45073;52.740;6.784;2023-04-15T14:03:30;7.18;;;1.60;;
59300;SDS011;45073;52.740;6.784;2023-04-15T14:05:56;6.90;;;1.60;;
59300;SDS011;45073;52.740;6.784;2023-04-15T14:08:23;6.15;;;1.60;;
59300;SDS011;45073;52.740;6.784;2023-04-15T14:10:49;5.47;;;1.17;;
59300;SDS011;45073;52.740;6.784;2023-04-15T14:13:15;7.43;;;1.75;;
59300;SDS011;45073;52.740;6.784;2023-04-15T14:15:41;5.10;;;1.20;;
59300;SDS011;45073;52.740;6.784;2023-04-15T14:18:06;5.50;;;1.40;;
59300;SDS011;45073;52.740;6.784;2023-04-15T14:20:32;5.68;;;1.48;;
59300;SDS011;45073;52.740;6.784;2023-04-15T14:22:58;5.60;;;1.60;;
59300;SDS011;45073;52.740;6.784;2023-04-15T14:25:23;9.63;;;2.00;;
59300;SDS011;45073;52.740;6.784;2023-04-15T14:27:51;8.32;;;2.20;;
59300;SDS011;45073;52.740;6.784;2023-04-15T14:30:17;4.80;;;1.30;;
59300;SDS011;45073;52.740;6.784;2023-04-15T14:32:43;9.73;;;3.30;;
59300;SDS011;45073;52.740;6.784;2023-04-15T14:35:08;8.02;;;2.17;;
59300;SDS011;45073;52.740;6.784;2023-04-15T14:37:34;4.72;;;1.48;;
59300;SDS011;45073;52.740;6.784;2023-04-15T14:40:00;7.18;;;1.70;;
59300;SDS011;45073;52.740;6.784;2023-04-15T14:42:25;5.80;;;1.67;;
59300;SDS011;45073;52.740;6.784;2023-04-15T14:44:51;7.78;;;1.70;;